Time;durP1;ratioP1;P1;durP2;ratioP2;P2;SDS_P1;SDS_P2;PMS_P1;PMS_P2;Temp;Humidity;BMP_temperature;BMP_pressure;BME280_temperature;BME280_humidity;BME280_pressure;Samples;Min_cycle;Max_cycle;Signal;HPM_P1;HPM_P2
2023/05/19 00:01:42;;;;;;;7.78;4.75;;;;;;;;;;5059595;28;20029;-58
2023/05/19 00:04:08;;;;;;;8.05;5.30;;;;;;;;;;5008284;28;20069;-56
2023/05/19 00:06:35;;;;;;;6.80;4.80;;;;;;;;;;5059216;28;20042;-57
2023/05/19 00:09:04;;;;;;;5.70;4.47;;;;;;;;;;5059507;28;20103;-57
2023/05/19 00:11:29;;;;;;;12.00;4.95;;;;;;;;;;5007114;28;20036;-56
2023/05/19 00:13:56;;;;;;;7.88;4.85;;;;;;;;;;5059470;28;20534;-57
2023/05/19 00:16:22;;;;;;;6.72;5.70;;;;;;;;;;5059430;28;20027;-57
2023/05/19 00:18:48;;;;;;;9.75;5.47;;;;;;;;;;5059158;28;20020;-58
2023/05/19 00:21:13;;;;;;;7.65;5.25;;;;;;;;;;5059461;28;20031;-57
2023/05/19 00:23:39;;;;;;;8.95;4.57;;;;;;;;;;5058943;28;20592;-57
2023/05/19 00:26:04;;;;;;;8.05;5.25;;;;;;;;;;5041604;28;20029;-58
2023/05/19 00:28:29;;;;;;;6.85;4.88;;;;;;;;;;5058692;28;20349;-57
2023/05/19 00:30:55;;;;;;;8.80;4.63;;;;;;;;;;5059503;28;20603;-55
2023/05/19 00:33:20;;;;;;;8.15;5.60;;;;;;;;;;5041220;28;20029;-57
2023/05/19 00:35:45;;;;;;;7.93;5.03;;;;;;;;;;5059041;28;20391;-57
2023/05/19 00:38:11;;;;;;;11.23;5.10;;;;;;;;;;5058948;28;20099;-57
2023/05/19 00:40:36;;;;;;;8.35;5.35;;;;;;;;;;5059313;28;20024;-57
2023/05/19 00:43:01;;;;;;;11.52;5.25;;;;;;;;;;5058855;28;20044;-57
2023/05/19 00:45:27;;;;;;;9.25;5.13;;;;;;;;;;5040823;28;20295;-58
2023/05/19 00:47:52;;;;;;;9.90;5.28;;;;;;;;;;5059085;28;20025;-56
2023/05/19 00:50:18;;;;;;;14.57;4.90;;;;;;;;;;5058653;28;20026;-57
2023/05/19 00:52:43;;;;;;;14.02;5.35;;;;;;;;;;5059460;28;20028;-57
2023/05/19 00:55:09;;;;;;;10.68;5.55;;;;;;;;;;5058040;28;20024;-54
2023/05/19 00:57:35;;;;;;;8.27;4.80;;;;;;;;;;5058743;28;20479;-58
2023/05/19 01:00:00;;;;;;;7.53;4.72;;;;;;;;;;5058561;28;20092;-57
2023/05/19 01:02:28;;;;;;;11.20;5.75;;;;;;;;;;5059059;28;20063;-57
2023/05/19 01:04:55;;;;;;;7.88;4.75;;;;;;;;;;5059569;28;20105;-57
2023/05/19 01:07:22;;;;;;;7.25;4.85;;;;;;;;;;5062177;28;20045;-57
2023/05/19 01:09:47;;;;;;;9.55;4.80;;;;;;;;;;5062649;28;20024;-57
2023/05/19 01:12:12;;;;;;;10.68;4.78;;;;;;;;;;5026276;28;20028;-57
2023/05/19 01:14:38;;;;;;;10.93;5.10;;;;;;;;;;5062576;28;20310;-56
2023/05/19 01:17:07;;;;;;;8.18;5.03;;;;;;;;;;5062076;28;20082;-58
2023/05/19 01:20:05;;;;;;;7.40;4.80;;;;;;;;;;5062186;28;20484;-56
2023/05/19 01:22:41;;;;;;;7.18;4.80;;;;;;;;;;4960672;28;20143;-57
2023/05/19 01:25:09;;;;;;;10.70;4.95;;;;;;;;;;4960597;28;20031;-57
2023/05/19 01:27:41;;;;;;;7.68;4.68;;;;;;;;;;4944581;28;20166;-57
2023/05/19 01:30:22;;;;;;;7.03;4.72;;;;;;;;;;4960857;28;20053;-56
2023/05/19 01:32:48;;;;;;;7.65;4.20;;;;;;;;;;4960795;28;20066;-54
2023/05/19 01:35:14;;;;;;;6.75;4.80;;;;;;;;;;4944477;28;20129;-56
2023/05/19 01:37:40;;;;;;;5.25;4.40;;;;;;;;;;4960582;28;20113;-56
2023/05/19 01:40:06;;;;;;;10.45;4.80;;;;;;;;;;4960424;28;20169;-57
2023/05/19 01:42:36;;;;;;;6.75;4.93;;;;;;;;;;4957953;28;20041;-56
2023/05/19 01:45:02;;;;;;;9.38;5.40;;;;;;;;;;4960669;28;20034;-57
2023/05/19 01:47:27;;;;;;;9.43;5.38;;;;;;;;;;4959984;28;20181;-57
2023/05/19 01:49:52;;;;;;;9.13;5.28;;;;;;;;;;4960317;28;20113;-55
2023/05/19 01:52:18;;;;;;;7.80;5.03;;;;;;;;;;4960244;28;20300;-56
2023/05/19 01:54:43;;;;;;;6.68;4.97;;;;;;;;;;4960177;28;20203;-56
2023/05/19 01:57:13;;;;;;;8.57;5.13;;;;;;;;;;4959980;28;20034;-57
2023/05/19 01:59:50;;;;;;;13.27;5.35;;;;;;;;;;5042458;28;20033;-56
2023/05/19 02:02:38;;;;;;;7.45;5.05;;;;;;;;;;5061585;28;20086;-56
2023/05/19 02:05:27;;;;;;;7.03;5.07;;;;;;;;;;5058999;28;20059;-57
2023/05/19 02:07:56;;;;;;;7.13;5.20;;;;;;;;;;5061342;28;20495;-55
2023/05/19 02:10:24;;;;;;;8.32;4.90;;;;;;;;;;5061167;28;20020;-58
2023/05/19 02:12:51;;;;;;;10.05;5.32;;;;;;;;;;5061582;28;20020;-57
2023/05/19 02:15:19;;;;;;;7.35;5.13;;;;;;;;;;5060950;28;20496;-57
2023/05/19 02:17:47;;;;;;;10.45;5.35;;;;;;;;;;5060449;28;20181;-57
2023/05/19 02:20:12;;;;;;;8.57;5.43;;;;;;;;;;5043436;28;20190;-57
2023/05/19 02:22:37;;;;;;;9.20;4.82;;;;;;;;;;5061154;28;20495;-57
2023/05/19 02:25:03;;;;;;;15.48;6.30;;;;;;;;;;5061239;28;20450;-55
2023/05/19 02:27:28;;;;;;;8.23;5.15;;;;;;;;;;5060971;28;20437;-59
2023/05/19 02:29:54;;;;;;;13.45;5.15;;;;;;;;;;5060977;28;20384;-55
2023/05/19 02:32:19;;;;;;;10.60;5.28;;;;;;;;;;5060944;28;20104;-57
2023/05/19 02:34:45;;;;;;;11.05;4.50;;;;;;;;;;5043018;28;20468;-57
2023/05/19 02:37:12;;;;;;;8.90;5.30;;;;;;;;;;5060868;28;20479;-59
2023/05/19 02:39:37;;;;;;;10.32;5.18;;;;;;;;;;5060784;28;20585;-58
2023/05/19 02:42:03;;;;;;;9.02;4.85;;;;;;;;;;5060878;28;20477;-57
2023/05/19 02:44:28;;;;;;;8.65;5.45;;;;;;;;;;5060591;28;20376;-58
2023/05/19 02:46:53;;;;;;;8.63;4.53;;;;;;;;;;5060549;28;20383;-57
2023/05/19 02:49:19;;;;;;;7.20;5.20;;;;;;;;;;5060281;28;20047;-54
2023/05/19 02:51:44;;;;;;;11.50;5.28;;;;;;;;;;5060659;28;20060;-58
2023/05/19 02:54:09;;;;;;;11.43;5.22;;;;;;;;;;5060287;28;20031;-58
2023/05/19 02:56:35;;;;;;;8.43;5.28;;;;;;;;;;5060158;28;20047;-56
2023/05/19 02:59:00;;;;;;;9.63;5.38;;;;;;;;;;5059863;28;20112;-58
2023/05/19 03:01:25;;;;;;;9.93;5.07;;;;;;;;;;5060031;28;20028;-57
2023/05/19 03:03:51;;;;;;;8.77;5.22;;;;;;;;;;5059935;28;20111;-56
2023/05/19 03:06:16;;;;;;;8.43;5.47;;;;;;;;;;5059578;28;20088;-57
2023/05/19 03:08:42;;;;;;;9.82;5.43;;;;;;;;;;5042267;28;20537;-54
2023/05/19 03:11:07;;;;;;;6.15;4.70;;;;;;;;;;5059439;28;20074;-57
2023/05/19 03:13:33;;;;;;;6.85;5.00;;;;;;;;;;5060102;28;20073;-54
2023/05/19 03:15:59;;;;;;;9.35;5.40;;;;;;;;;;5059757;28;20081;-55
2023/05/19 03:18:27;;;;;;;13.57;4.50;;;;;;;;;;5059539;28;20069;-58
2023/05/19 03:20:55;;;;;;;14.52;5.47;;;;;;;;;;5059883;28;20528;-58
2023/05/19 03:23:20;;;;;;;8.15;5.40;;;;;;;;;;5059527;28;20024;-57
2023/05/19 03:25:46;;;;;;;7.28;4.30;;;;;;;;;;5059860;28;20032;-56
2023/05/19 03:28:11;;;;;;;10.65;4.97;;;;;;;;;;5059100;28;20020;-57
2023/05/19 03:30:37;;;;;;;8.18;4.53;;;;;;;;;;5059683;28;20526;-57
2023/05/19 03:33:02;;;;;;;9.88;4.57;;;;;;;;;;5059091;28;20166;-57
2023/05/19 03:35:27;;;;;;;9.45;4.60;;;;;;;;;;5059871;28;20443;-58
2023/05/19 03:37:53;;;;;;;5.22;4.28;;;;;;;;;;5059330;28;20431;-56
2023/05/19 03:40:18;;;;;;;6.18;3.88;;;;;;;;;;5059508;28;20016;-58
2023/05/19 03:42:43;;;;;;;7.30;3.97;;;;;;;;;;5059587;28;20460;-57
2023/05/19 03:45:09;;;;;;;7.93;4.55;;;;;;;;;;5059348;28;20040;-56
2023/05/19 03:47:34;;;;;;;6.65;4.43;;;;;;;;;;5041436;28;20031;-58
2023/05/19 03:50:00;;;;;;;10.25;4.78;;;;;;;;;;5059072;28;20022;-58
2023/05/19 03:52:25;;;;;;;9.02;3.58;;;;;;;;;;5059383;28;20668;-57
2023/05/19 03:54:51;;;;;;;5.28;3.47;;;;;;;;;;5058828;28;20027;-58
2023/05/19 03:57:17;;;;;;;6.78;3.38;;;;;;;;;;5059288;28;20013;-56
2023/05/19 03:59:42;;;;;;;7.38;3.53;;;;;;;;;;5058671;28;20036;-57
2023/05/19 04:02:08;;;;;;;4.70;3.45;;;;;;;;;;5059151;28;20020;-57
2023/05/19 04:04:33;;;;;;;4.65;3.22;;;;;;;;;;5058657;28;20513;-57
2023/05/19 04:06:58;;;;;;;8.48;3.20;;;;;;;;;;5058789;28;20048;-57
2023/05/19 04:09:24;;;;;;;5.25;3.20;;;;;;;;;;5059241;28;20029;-55
2023/05/19 04:11:49;;;;;;;4.95;3.17;;;;;;;;;;5059285;28;20056;-58
2023/05/19 04:14:14;;;;;;;6.55;3.13;;;;;;;;;;5023228;28;20040;-57
2023/05/19 04:16:40;;;;;;;4.57;3.40;;;;;;;;;;5059263;28;20222;-57
2023/05/19 04:19:05;;;;;;;5.45;3.60;;;;;;;;;;5059128;28;20029;-57
2023/05/19 04:21:31;;;;;;;8.43;3.35;;;;;;;;;;5058608;28;20412;-54
2023/05/19 04:23:58;;;;;;;6.07;3.08;;;;;;;;;;5059473;28;20162;-56
2023/05/19 04:26:25;;;;;;;4.13;3.08;;;;;;;;;;5058726;28;20025;-56
2023/05/19 04:28:50;;;;;;;8.48;3.63;;;;;;;;;;5058826;28;20024;-58
2023/05/19 04:31:16;;;;;;;7.55;3.47;;;;;;;;;;5059191;28;20466;-57
2023/05/19 04:33:41;;;;;;;6.10;3.20;;;;;;;;;;5058490;28;20394;-57
2023/05/19 04:36:09;;;;;;;4.22;2.80;;;;;;;;;;5058515;28;20023;-57
2023/05/19 04:38:35;;;;;;;4.68;3.10;;;;;;;;;;5058628;28;20101;-57
2023/05/19 04:41:01;;;;;;;4.15;2.85;;;;;;;;;;5061358;28;20358;-57
2023/05/19 04:43:27;;;;;;;7.75;2.28;;;;;;;;;;5044425;28;20309;-58
2023/05/19 04:45:52;;;;;;;6.53;3.20;;;;;;;;;;5062573;28;20032;-58
2023/05/19 04:48:18;;;;;;;10.18;3.17;;;;;;;;;;5062770;28;20013;-58
2023/05/19 04:50:43;;;;;;;3.40;2.22;;;;;;;;;;5062704;28;20020;-58
2023/05/19 04:53:08;;;;;;;79.38;18.33;;;;;;;;;;5062524;28;20028;-58
2023/05/19 04:55:34;;;;;;;2.92;2.22;;;;;;;;;;5062275;28;20352;-57
2023/05/19 04:57:59;;;;;;;5.85;2.45;;;;;;;;;;5061863;28;20078;-58
2023/05/19 05:00:25;;;;;;;4.22;2.10;;;;;;;;;;5062118;28;20025;-57
2023/05/19 05:02:50;;;;;;;6.57;2.72;;;;;;;;;;5062371;28;20098;-57
2023/05/19 05:05:15;;;;;;;4.45;2.30;;;;;;;;;;5061986;28;20024;-57
2023/05/19 05:07:41;;;;;;;5.95;2.25;;;;;;;;;;5062349;28;20727;-58
2023/05/19 05:10:07;;;;;;;4.80;2.60;;;;;;;;;;5062269;28;20364;-58
2023/05/19 05:12:32;;;;;;;2.88;2.20;;;;;;;;;;5062312;28;20013;-58
2023/05/19 05:14:58;;;;;;;3.65;2.33;;;;;;;;;;5062177;28;20029;-57
2023/05/19 05:17:24;;;;;;;4.78;2.40;;;;;;;;;;5061975;28;20077;-58
2023/05/19 05:19:49;;;;;;;4.75;2.20;;;;;;;;;;5062135;28;20024;-57
2023/05/19 05:22:15;;;;;;;3.65;2.25;;;;;;;;;;5043710;28;20025;-57
2023/05/19 05:24:40;;;;;;;3.50;2.17;;;;;;;;;;5062107;28;20025;-57
2023/05/19 05:27:07;;;;;;;5.57;2.20;;;;;;;;;;5061907;28;20487;-57
2023/05/19 05:29:32;;;;;;;3.42;1.85;;;;;;;;;;5043852;28;20427;-58
2023/05/19 05:31:57;;;;;;;1.85;1.73;;;;;;;;;;5061381;28;20031;-59
2023/05/19 05:34:22;;;;;;;6.32;2.60;;;;;;;;;;5061999;28;20051;-59
2023/05/19 05:36:48;;;;;;;4.20;2.15;;;;;;;;;;5056973;28;20016;-56
2023/05/19 05:39:13;;;;;;;6.70;2.60;;;;;;;;;;5043966;28;20032;-58
2023/05/19 05:41:38;;;;;;;7.00;2.10;;;;;;;;;;5051513;28;20020;-59
2023/05/19 05:44:04;;;;;;;3.03;2.30;;;;;;;;;;5055356;28;20246;-58
2023/05/19 05:46:29;;;;;;;2.35;1.77;;;;;;;;;;5053474;28;20738;-58
2023/05/19 05:48:55;;;;;;;6.07;2.28;;;;;;;;;;5061011;28;20021;-56
2023/05/19 05:51:20;;;;;;;5.30;2.47;;;;;;;;;;5047347;28;20425;-58
2023/05/19 05:53:49;;;;;;;3.63;2.25;;;;;;;;;;5047818;28;20021;-57
2023/05/19 05:56:14;;;;;;;3.10;2.03;;;;;;;;;;5049315;28;20035;-57
2023/05/19 05:58:39;;;;;;;4.50;2.28;;;;;;;;;;5046622;28;20107;-58
2023/05/19 06:01:09;;;;;;;4.72;2.72;;;;;;;;;;5044603;28;20068;-55
2023/05/19 06:03:36;;;;;;;5.90;2.20;;;;;;;;;;5043265;28;20099;-58
2023/05/19 06:06:02;;;;;;;23.20;11.20;;;;;;;;;;5045260;28;20095;-52
2023/05/19 06:08:27;;;;;;;78.22;27.33;;;;;;;;;;5042562;28;20024;-61
2023/05/19 06:10:52;;;;;;;5.13;2.43;;;;;;;;;;5049815;28;20040;-61
2023/05/19 06:13:21;;;;;;;6.88;2.10;;;;;;;;;;5050488;28;20345;-63
2023/05/19 06:15:46;;;;;;;6.30;2.40;;;;;;;;;;5046321;28;20070;-59
2023/05/19 06:18:11;;;;;;;7.28;2.78;;;;;;;;;;5026101;28;20024;-62
2023/05/19 06:20:37;;;;;;;8.13;2.27;;;;;;;;;;5045074;28;20067;-53
2023/05/19 06:23:02;;;;;;;6.70;2.60;;;;;;;;;;5046871;28;20266;-56
2023/05/19 06:25:27;;;;;;;3.33;2.13;;;;;;;;;;5045368;28;20268;-56
2023/05/19 06:27:53;;;;;;;5.03;2.40;;;;;;;;;;5050875;28;20029;-55
2023/05/19 06:30:18;;;;;;;6.45;2.72;;;;;;;;;;5061988;28;20045;-55
2023/05/19 06:32:44;;;;;;;3.87;2.00;;;;;;;;;;5047714;28;20064;-57
2023/05/19 06:35:10;;;;;;;5.85;2.35;;;;;;;;;;5051741;28;20314;-58
2023/05/19 06:37:35;;;;;;;4.78;2.38;;;;;;;;;;5054866;28;20033;-57
2023/05/19 06:40:00;;;;;;;5.93;2.55;;;;;;;;;;5048872;28;20388;-62
2023/05/19 06:42:26;;;;;;;8.40;2.30;;;;;;;;;;5050318;28;20009;-58
2023/05/19 06:44:51;;;;;;;4.78;2.20;;;;;;;;;;5056458;28;20244;-59
2023/05/19 06:47:17;;;;;;;3.40;1.98;;;;;;;;;;5042719;28;20585;-59
2023/05/19 06:49:45;;;;;;;4.68;2.17;;;;;;;;;;5049597;28;20020;-60
2023/05/19 06:52:11;;;;;;;4.82;2.47;;;;;;;;;;5049210;28;20062;-61
2023/05/19 06:54:36;;;;;;;5.10;2.08;;;;;;;;;;5047491;28;20025;-59
2023/05/19 06:57:01;;;;;;;5.45;2.63;;;;;;;;;;5047376;28;20059;-59
2023/05/19 06:59:26;;;;;;;7.70;2.67;;;;;;;;;;5047151;28;20033;-58
2023/05/19 07:01:52;;;;;;;5.97;2.43;;;;;;;;;;5052423;28;20281;-57
2023/05/19 07:04:17;;;;;;;4.47;1.98;;;;;;;;;;5054803;28;20257;-58
2023/05/19 07:06:42;;;;;;;4.70;2.73;;;;;;;;;;5059400;28;20045;-60
2023/05/19 07:09:08;;;;;;;7.20;2.40;;;;;;;;;;5054176;28;20922;-58
2023/05/19 07:11:34;;;;;;;3.80;2.10;;;;;;;;;;5048248;28;20785;-61
2023/05/19 07:13:59;;;;;;;10.60;2.83;;;;;;;;;;4998810;28;20036;-61
2023/05/19 07:16:25;;;;;;;6.40;2.17;;;;;;;;;;5055361;28;20028;-56
2023/05/19 07:18:50;;;;;;;7.05;2.80;;;;;;;;;;5044025;28;20035;-61
2023/05/19 07:21:15;;;;;;;6.30;2.50;;;;;;;;;;5055482;28;20028;-61
2023/05/19 07:23:41;;;;;;;4.43;2.58;;;;;;;;;;5048698;28;20354;-58
2023/05/19 07:26:06;;;;;;;5.60;2.60;;;;;;;;;;5054572;28;20021;-60
2023/05/19 07:28:33;;;;;;;4.13;2.60;;;;;;;;;;5050058;28;20025;-60
2023/05/19 07:30:58;;;;;;;4.63;2.45;;;;;;;;;;5051191;28;20025;-60
2023/05/19 07:33:25;;;;;;;5.28;2.38;;;;;;;;;;5055980;28;20539;-58
2023/05/19 07:35:51;;;;;;;5.10;2.75;;;;;;;;;;5049125;28;20023;-60
2023/05/19 07:38:16;;;;;;;8.57;2.97;;;;;;;;;;5053222;28;20025;-60
2023/05/19 07:40:41;;;;;;;5.37;2.63;;;;;;;;;;5046867;28;20269;-60
2023/05/19 07:43:06;;;;;;;8.80;2.65;;;;;;;;;;5045371;28;20380;-60
2023/05/19 07:45:32;;;;;;;5.60;2.47;;;;;;;;;;5055901;28;20485;-57
2023/05/19 07:47:57;;;;;;;16.30;3.10;;;;;;;;;;5055809;28;20278;-61
2023/05/19 07:50:22;;;;;;;12.37;5.00;;;;;;;;;;5044623;28;20277;-60
2023/05/19 07:52:47;;;;;;;7.20;2.33;;;;;;;;;;5047305;28;20066;-61
2023/05/19 07:55:13;;;;;;;14.30;7.23;;;;;;;;;;5045651;28;20914;-58
2023/05/19 07:57:39;;;;;;;5.60;2.55;;;;;;;;;;5048709;28;20322;-56
2023/05/19 08:00:08;;;;;;;6.10;2.03;;;;;;;;;;5050260;28;20029;-60
2023/05/19 08:02:34;;;;;;;7.65;1.75;;;;;;;;;;5027541;28;20261;-58
2023/05/19 08:04:59;;;;;;;6.03;2.05;;;;;;;;;;5063270;28;20036;-58
2023/05/19 08:07:24;;;;;;;3.63;1.98;;;;;;;;;;5051622;28;20049;-58
2023/05/19 08:09:50;;;;;;;5.10;2.20;;;;;;;;;;5026008;28;20357;-59
2023/05/19 08:12:15;;;;;;;6.50;2.10;;;;;;;;;;5044401;28;20032;-58
2023/05/19 08:14:40;;;;;;;6.45;2.72;;;;;;;;;;5052172;28;20300;-59
2023/05/19 08:17:06;;;;;;;11.77;2.60;;;;;;;;;;5051623;28;20380;-56
2023/05/19 08:19:31;;;;;;;6.75;3.10;;;;;;;;;;5060995;28;20439;-59
2023/05/19 08:21:59;;;;;;;70.67;52.43;;;;;;;;;;5055539;28;20392;-59
2023/05/19 08:24:25;;;;;;;7.05;2.58;;;;;;;;;;5049536;28;20021;-58
2023/05/19 08:26:50;;;;;;;7.43;2.55;;;;;;;;;;5046913;28;20040;-58
2023/05/19 08:29:15;;;;;;;3.70;2.10;;;;;;;;;;5047056;28;20039;-59
2023/05/19 08:31:41;;;;;;;7.63;2.50;;;;;;;;;;5051071;28;20016;-56
2023/05/19 08:34:06;;;;;;;7.87;2.60;;;;;;;;;;5054463;28;20266;-58
2023/05/19 08:36:32;;;;;;;6.27;2.60;;;;;;;;;;5049664;28;20299;-58
2023/05/19 08:38:57;;;;;;;7.55;3.00;;;;;;;;;;5047397;28;20254;-59
2023/05/19 08:41:23;;;;;;;11.13;2.60;;;;;;;;;;5051427;28;20020;-57
2023/05/19 08:43:48;;;;;;;3.90;2.30;;;;;;;;;;5047977;28;20284;-60
2023/05/19 08:46:15;;;;;;;6.70;1.77;;;;;;;;;;5047551;28;20339;-57
2023/05/19 08:48:41;;;;;;;4.45;2.15;;;;;;;;;;5048071;28;20075;-59
2023/05/19 08:51:12;;;;;;;4.63;2.00;;;;;;;;;;5045240;28;20036;-60
2023/05/19 08:53:39;;;;;;;6.03;2.60;;;;;;;;;;5056623;28;20013;-60
2023/05/19 08:56:10;;;;;;;3.88;2.20;;;;;;;;;;5047697;28;20087;-58
2023/05/19 08:58:40;;;;;;;8.75;2.97;;;;;;;;;;5047832;28;20032;-58
2023/05/19 09:01:06;;;;;;;6.30;2.40;;;;;;;;;;5052889;28;20029;-58
2023/05/19 09:03:36;;;;;;;5.53;2.22;;;;;;;;;;5040686;28;20396;-59
2023/05/19 09:06:06;;;;;;;8.07;2.78;;;;;;;;;;5043470;28;20049;-55
2023/05/19 09:08:32;;;;;;;7.55;2.63;;;;;;;;;;5051750;28;20025;-56
2023/05/19 09:10:57;;;;;;;5.63;2.50;;;;;;;;;;5043578;28;20472;-59
2023/05/19 09:13:22;;;;;;;6.07;2.80;;;;;;;;;;5042912;28;20427;-58
2023/05/19 09:15:49;;;;;;;6.67;2.73;;;;;;;;;;5027375;28;20045;-59
2023/05/19 09:18:14;;;;;;;6.15;2.97;;;;;;;;;;5054687;28;20392;-59
2023/05/19 09:20:40;;;;;;;7.40;2.95;;;;;;;;;;5053124;28;20029;-61
2023/05/19 09:23:07;;;;;;;6.88;3.10;;;;;;;;;;5046766;28;20040;-59
2023/05/19 09:25:32;;;;;;;7.68;3.10;;;;;;;;;;5047742;28;20013;-57
2023/05/19 09:27:58;;;;;;;10.20;5.20;;;;;;;;;;5055493;28;20028;-61
2023/05/19 09:30:23;;;;;;;8.63;3.13;;;;;;;;;;5056907;28;20028;-56
2023/05/19 09:32:50;;;;;;;7.75;2.80;;;;;;;;;;5053618;28;20142;-60
2023/05/19 09:35:20;;;;;;;5.07;2.58;;;;;;;;;;5061582;28;20036;-59
2023/05/19 09:37:45;;;;;;;4.75;2.95;;;;;;;;;;5046739;28;20028;-58
2023/05/19 09:40:14;;;;;;;4.22;2.78;;;;;;;;;;5051125;28;20016;-59
2023/05/19 09:42:39;;;;;;;;;;;;;;;;;;5048181;28;20036;-60
2023/05/19 09:45:05;;;;;;;5.73;2.73;;;;;;;;;;5049991;28;19917;-55
2023/05/19 09:47:38;;;;;;;7.28;2.63;;;;;;;;;;5041512;28;20727;-56
2023/05/19 09:50:04;;;;;;;8.93;3.22;;;;;;;;;;5040142;28;20025;-62
2023/05/19 09:52:29;;;;;;;7.32;2.40;;;;;;;;;;5049793;28;20368;-60
2023/05/19 09:54:55;;;;;;;3.05;2.35;;;;;;;;;;5066357;28;20039;-59
2023/05/19 09:57:25;;;;;;;4.50;2.70;;;;;;;;;;5062782;28;20349;-60
2023/05/19 09:59:51;;;;;;;37.35;21.85;;;;;;;;;;5059555;28;20048;-57
2023/05/19 10:02:20;;;;;;;7.47;3.10;;;;;;;;;;5050745;28;20531;-58
2023/05/19 10:04:46;;;;;;;3.25;2.25;;;;;;;;;;5034514;28;20376;-58
2023/05/19 10:07:13;;;;;;;5.43;2.70;;;;;;;;;;5057530;28;20513;-59
2023/05/19 10:09:40;;;;;;;7.63;3.63;;;;;;;;;;5053283;28;20070;-60
2023/05/19 10:12:05;;;;;;;9.32;6.07;;;;;;;;;;5049296;28;20056;-57
2023/05/19 10:14:30;;;;;;;8.25;7.45;;;;;;;;;;5051099;28;20438;-60
2023/05/19 10:16:57;;;;;;;9.33;5.63;;;;;;;;;;5050719;28;20016;-59
2023/05/19 10:19:23;;;;;;;5.75;5.20;;;;;;;;;;5060157;28;20021;-59
2023/05/19 10:21:49;;;;;;;8.93;6.03;;;;;;;;;;5047231;28;20095;-58
2023/05/19 10:24:15;;;;;;;8.35;7.40;;;;;;;;;;5058635;28;20021;-60
2023/05/19 10:26:50;;;;;;;34.83;32.20;;;;;;;;;;5065394;28;20115;-55
2023/05/19 10:29:18;;;;;;;63.88;59.28;;;;;;;;;;5059082;28;20472;-60
2023/05/19 10:31:44;;;;;;;150.68;140.73;;;;;;;;;;5049094;28;20025;-57
2023/05/19 10:34:12;;;;;;;81.85;76.38;;;;;;;;;;5029290;28;20029;-60
2023/05/19 10:36:43;;;;;;;71.93;66.55;;;;;;;;;;5052046;28;20024;-57
2023/05/19 10:39:15;;;;;;;47.38;43.53;;;;;;;;;;5060346;28;20047;-61
2023/05/19 10:41:57;;;;;;;32.15;29.48;;;;;;;;;;5065315;28;20021;-60
2023/05/19 10:44:41;;;;;;;37.30;33.47;;;;;;;;;;5048682;28;20052;-55
2023/05/19 10:47:07;;;;;;;40.60;37.25;;;;;;;;;;5058582;28;20094;-60
2023/05/19 10:49:35;;;;;;;52.50;48.45;;;;;;;;;;5042129;28;20247;-59
2023/05/19 10:52:01;;;;;;;31.42;28.48;;;;;;;;;;5057944;28;20091;-56
2023/05/19 10:54:45;;;;;;;18.90;17.03;;;;;;;;;;5040021;28;20169;-58
2023/05/19 10:57:15;;;;;;;13.10;8.18;;;;;;;;;;5037167;28;20492;-58
2023/05/19 10:59:40;;;;;;;8.15;4.28;;;;;;;;;;5042881;28;20049;-58
2023/05/19 11:02:07;;;;;;;7.75;6.03;;;;;;;;;;5047257;28;20110;-60
2023/05/19 11:04:46;;;;;;;16.80;7.05;;;;;;;;;;5023004;28;20021;-60
2023/05/19 11:07:16;;;;;;;14.77;6.63;;;;;;;;;;5047573;28;20037;-60
2023/05/19 11:09:41;;;;;;;9.95;3.95;;;;;;;;;;5045111;28;20025;-58
2023/05/19 11:12:07;;;;;;;11.43;4.55;;;;;;;;;;5047244;28;20020;-60
2023/05/19 11:14:33;;;;;;;10.57;3.95;;;;;;;;;;5046031;28;20024;-58
2023/05/19 11:16:59;;;;;;;6.07;3.22;;;;;;;;;;5054702;28;20115;-60
2023/05/19 11:19:31;;;;;;;7.57;3.45;;;;;;;;;;5056528;28;20162;-58
2023/05/19 11:22:06;;;;;;;5.22;3.33;;;;;;;;;;5043061;28;20062;-57
2023/05/19 11:24:49;;;;;;;12.65;4.00;;;;;;;;;;5015091;28;20082;-61
2023/05/19 11:27:17;;;;;;;9.52;3.72;;;;;;;;;;5041999;28;20028;-59
2023/05/19 11:29:42;;;;;;;7.95;3.75;;;;;;;;;;5046333;28;20333;-63
2023/05/19 11:32:08;;;;;;;10.70;3.83;;;;;;;;;;5051090;28;20035;-60
2023/05/19 11:34:34;;;;;;;12.82;3.50;;;;;;;;;;5060236;28;20261;-60
2023/05/19 11:37:00;;;;;;;12.10;4.15;;;;;;;;;;5044248;28;20036;-60
2023/05/19 11:39:26;;;;;;;15.55;4.18;;;;;;;;;;5042249;28;20079;-61
2023/05/19 11:41:54;;;;;;;7.85;3.28;;;;;;;;;;5055612;28;20030;-57
2023/05/19 11:44:19;;;;;;;7.80;3.30;;;;;;;;;;5052084;28;21356;-58
2023/05/19 11:46:44;;;;;;;10.47;4.00;;;;;;;;;;5047988;28;20028;-59
2023/05/19 11:49:09;;;;;;;11.30;3.63;;;;;;;;;;5049983;28;20265;-62
2023/05/19 11:51:35;;;;;;;9.20;3.33;;;;;;;;;;5046803;28;20370;-61
2023/05/19 11:54:01;;;;;;;12.88;4.00;;;;;;;;;;5045543;28;20104;-59
2023/05/19 11:56:32;;;;;;;8.88;3.50;;;;;;;;;;5041699;28;20033;-60
2023/05/19 11:58:57;;;;;;;8.48;3.47;;;;;;;;;;5041821;28;20103;-59
2023/05/19 12:01:25;;;;;;;11.47;4.03;;;;;;;;;;5051241;28;20031;-60
2023/05/19 12:03:50;;;;;;;12.30;5.07;;;;;;;;;;5049642;28;20526;-60
2023/05/19 12:06:16;;;;;;;11.35;4.15;;;;;;;;;;5028655;28;20053;-62
2023/05/19 12:08:41;;;;;;;6.03;3.45;;;;;;;;;;5059438;28;20460;-59
2023/05/19 12:11:06;;;;;;;11.13;4.13;;;;;;;;;;5045127;28;20021;-60
2023/05/19 12:13:32;;;;;;;16.93;6.60;;;;;;;;;;5052230;28;20033;-56
2023/05/19 12:16:02;;;;;;;8.50;3.60;;;;;;;;;;5053232;28;20300;-57
2023/05/19 12:18:35;;;;;;;4.95;3.00;;;;;;;;;;5051230;28;20021;-58
2023/05/19 12:21:00;;;;;;;14.10;4.78;;;;;;;;;;5053133;28;20033;-58
2023/05/19 12:23:26;;;;;;;6.43;3.13;;;;;;;;;;5043853;28;20031;-59
2023/05/19 12:25:52;;;;;;;8.70;3.40;;;;;;;;;;5049877;28;20479;-58
2023/05/19 12:28:18;;;;;;;10.48;3.50;;;;;;;;;;5044000;28;20024;-59
2023/05/19 12:30:46;;;;;;;6.65;3.45;;;;;;;;;;5049463;28;20020;-58
2023/05/19 12:33:13;;;;;;;10.27;3.08;;;;;;;;;;5052328;28;20025;-59
2023/05/19 12:35:38;;;;;;;8.38;3.65;;;;;;;;;;5051657;28;20039;-60
2023/05/19 12:38:05;;;;;;;8.88;3.58;;;;;;;;;;5053732;28;20016;-60
2023/05/19 12:40:32;;;;;;;10.68;4.15;;;;;;;;;;5047221;28;20025;-58
2023/05/19 12:42:57;;;;;;;7.20;4.00;;;;;;;;;;5043108;28;20087;-59
2023/05/19 12:45:25;;;;;;;19.92;5.80;;;;;;;;;;5043613;28;20044;-61
2023/05/19 12:47:51;;;;;;;8.27;4.20;;;;;;;;;;5054997;28;20052;-56
2023/05/19 12:50:17;;;;;;;14.55;4.97;;;;;;;;;;5050622;28;20480;-60
2023/05/19 12:52:43;;;;;;;82.22;28.27;;;;;;;;;;5057086;28;20056;-58
2023/05/19 12:55:10;;;;;;;13.80;4.97;;;;;;;;;;5051986;28;20036;-59
2023/05/19 12:57:36;;;;;;;11.07;3.70;;;;;;;;;;5026554;28;20023;-59
2023/05/19 13:00:12;;;;;;;5.28;3.10;;;;;;;;;;5053550;28;20037;-56
2023/05/19 13:02:54;;;;;;;4.90;3.17;;;;;;;;;;5030753;28;20025;-58
2023/05/19 13:05:20;;;;;;;25.25;8.68;;;;;;;;;;5045215;28;20040;-59
2023/05/19 13:07:58;;;;;;;18.27;6.05;;;;;;;;;;5049854;28;20029;-57
2023/05/19 13:10:26;;;;;;;26.13;12.10;;;;;;;;;;5056698;28;20449;-60
2023/05/19 13:12:51;;;;;;;10.85;5.70;;;;;;;;;;5048744;28;20112;-57
2023/05/19 13:15:17;;;;;;;10.68;4.18;;;;;;;;;;5054039;28;20119;-59
2023/05/19 13:17:42;;;;;;;10.07;5.80;;;;;;;;;;5049454;28;20057;-60
2023/05/19 13:20:07;;;;;;;8.65;3.35;;;;;;;;;;5058904;28;20559;-60
2023/05/19 13:22:33;;;;;;;8.35;3.17;;;;;;;;;;5050801;28;20043;-57
2023/05/19 13:24:58;;;;;;;10.27;3.77;;;;;;;;;;5051060;28;20013;-57
2023/05/19 13:27:24;;;;;;;11.60;3.97;;;;;;;;;;5055075;28;20652;-62
2023/05/19 13:29:49;;;;;;;2.90;2.60;;;;;;;;;;5059759;28;20050;-57
2023/05/19 13:32:14;;;;;;;6.30;3.40;;;;;;;;;;5057851;28;20017;-61
2023/05/19 13:34:40;;;;;;;3.85;3.00;;;;;;;;;;5051402;28;20628;-58
2023/05/19 13:37:08;;;;;;;9.57;3.70;;;;;;;;;;5054970;28;20120;-58
2023/05/19 13:39:33;;;;;;;6.33;3.83;;;;;;;;;;5030406;28;20254;-57
2023/05/19 13:41:58;;;;;;;6.05;3.00;;;;;;;;;;5052740;28;20029;-60
2023/05/19 13:44:24;;;;;;;9.05;4.30;;;;;;;;;;5060489;28;20025;-57
2023/05/19 13:46:50;;;;;;;10.18;3.35;;;;;;;;;;5060932;28;20086;-59
2023/05/19 13:49:15;;;;;;;10.75;3.67;;;;;;;;;;5042942;28;20486;-58
2023/05/19 13:51:41;;;;;;;6.72;3.63;;;;;;;;;;5042784;28;20113;-59
2023/05/19 13:54:07;;;;;;;4.57;3.58;;;;;;;;;;5060585;28;20037;-60
2023/05/19 13:56:32;;;;;;;6.00;3.23;;;;;;;;;;5060260;28;20533;-57
2023/05/19 13:58:57;;;;;;;9.27;3.70;;;;;;;;;;5061296;28;20287;-58
2023/05/19 14:01:23;;;;;;;4.40;3.40;;;;;;;;;;5060668;28;20040;-58
2023/05/19 14:03:48;;;;;;;8.30;3.72;;;;;;;;;;5060931;28;20599;-60
2023/05/19 14:06:13;;;;;;;6.72;3.47;;;;;;;;;;5060540;28;20040;-59
2023/05/19 14:08:40;;;;;;;5.97;3.40;;;;;;;;;;5060613;28;20017;-58
2023/05/19 14:11:05;;;;;;;4.68;3.63;;;;;;;;;;5060282;28;20241;-59
2023/05/19 14:13:30;;;;;;;9.20;3.75;;;;;;;;;;5059549;28;20477;-59
2023/05/19 14:15:55;;;;;;;7.97;3.63;;;;;;;;;;5060496;28;20027;-59
2023/05/19 14:18:21;;;;;;;8.18;3.40;;;;;;;;;;5060421;28;20855;-59
2023/05/19 14:20:46;;;;;;;4.80;3.43;;;;;;;;;;5060429;28;20355;-57
2023/05/19 14:23:13;;;;;;;4.43;3.60;;;;;;;;;;5060032;28;20249;-59
2023/05/19 14:25:39;;;;;;;5.43;3.47;;;;;;;;;;5017251;28;20262;-58
2023/05/19 14:28:04;;;;;;;8.45;3.65;;;;;;;;;;5017043;28;20045;-56
2023/05/19 14:30:29;;;;;;;7.82;3.90;;;;;;;;;;5017665;28;20033;-59
2023/05/19 14:32:55;;;;;;;6.30;3.70;;;;;;;;;;5017192;28;20076;-60
2023/05/19 14:35:20;;;;;;;5.87;3.10;;;;;;;;;;5017842;28;20598;-56